KLOL

Derby Field Airport

Lovelock, Nevada, USA
METAR KLOL 230953Z AUTO 32006KT 10SM SCT055 M09/M12 A3005 RMK AO2 SLP209 T10891117
Observed Flight Rules
Feb-23 @ 09:53 UTC (30 minutes ago) Visual Flight Rules
Wind Visibility Clouds
320° at 6 knots 10 miles
  • Scattered at 5,500' AGL
Temperatures Readings
Current -9°C / 16°F
Dewpoint -12°C / 10°F
Humidity 79%
Altimeter 30.05" Hg
Pressure 1020.9 hPa
Elevation 1189
METAR KLOL 230953Z AUTO 32006KT 10SM SCT055 M09/M12 A3005 RMK AO2 SLP209 T10891117
Observed Flight Rules
Feb-23 @ 09:53 UTC
(30 minutes ago)
VFR
Wind Visibility
320° at 6 knots 10 miles
Clouds
  • Scattered at 5,500' AGL
Temperature Dewpoint
-9°C / 16°F -12°C / 10°F
Humidity Altimeter Pressure
79% 30.05" Hg 1020.9 hPa